Time;durP1;ratioP1;P1;durP2;ratioP2;P2;SDS_P1;SDS_P2;PMS_P1;PMS_P2;Temp;Humidity;BMP_temperature;BMP_pressure;BME280_temperature;BME280_humidity;BME280_pressure;Samples;Min_cycle;Max_cycle;Signal;HPM_P1;HPM_P2
2022/01/25 00:24:18;;;;;;;60.30;30.75;;;4.80;99.90;;;;;;5044486;28;20638;-67
2022/01/25 00:24:31;;;;;;;61.63;31.38;;;4.80;99.90;;;;;;5071996;28;20091;-67
2022/01/25 00:27:07;;;;;;;67.38;33.65;;;4.80;99.90;;;;;;5072798;28;20048;-68
2022/01/25 00:29:47;;;;;;;69.57;33.92;;;4.80;99.90;;;;;;5072371;28;20116;-67
2022/01/25 00:32:15;;;;;;;72.75;33.15;;;4.80;99.90;;;;;;5072509;28;20059;-67
2022/01/25 00:34:40;;;;;;;67.65;33.33;;;4.80;99.90;;;;;;5072352;28;20040;-68
2022/01/25 00:37:06;;;;;;;69.18;32.33;;;4.80;99.90;;;;;;5072918;28;20033;-68
2022/01/25 00:39:32;;;;;;;65.45;33.47;;;4.80;99.90;;;;;;5072870;28;20079;-67
2022/01/25 00:41:58;;;;;;;71.43;35.92;;;4.70;99.90;;;;;;5072763;28;20047;-68
2022/01/25 00:44:24;;;;;;;74.47;34.88;;;4.80;99.90;;;;;;5072585;28;20040;-67
2022/01/25 00:46:50;;;;;;;73.50;35.45;;;4.80;99.90;;;;;;5072844;28;20052;-67
2022/01/25 00:49:26;;;;;;;70.93;33.58;;;4.80;99.90;;;;;;5072156;28;20048;-67
2022/01/25 00:54:30;;;;;;;74.22;33.90;;;4.70;99.90;;;;;;5071949;28;20037;-67
2022/01/25 00:56:57;;;;;;;71.88;35.00;;;4.70;99.90;;;;;;5072264;28;20044;-67
2022/01/25 00:59:29;;;;;;;71.68;35.58;;;4.70;99.90;;;;;;5054466;28;20090;-67
2022/01/25 01:02:03;;;;;;;70.97;34.15;;;4.70;99.90;;;;;;5072009;28;20497;-67
2022/01/25 01:04:31;;;;;;;68.82;35.15;;;4.60;99.90;;;;;;5072080;28;20040;-67
2022/01/25 01:06:56;;;;;;;71.50;33.72;;;4.70;99.90;;;;;;5072319;28;20052;-67
2022/01/25 01:09:22;;;;;;;72.80;34.17;;;4.60;99.90;;;;;;5072192;28;20507;-67
2022/01/25 01:16:53;;;;;;;75.00;35.88;;;4.80;99.90;;;;;;5072109;28;20073;-67
2022/01/25 01:43:29;;;;;;;71.15;33.80;;;4.70;99.90;;;;;;5071236;28;20041;-67
2022/01/25 01:48:48;;;;;;;77.22;35.95;;;4.70;99.90;;;;;;5071155;28;20051;-67
2022/01/25 01:51:19;;;;;;;74.70;34.08;;;4.70;99.90;;;;;;5071232;28;20233;-67
2022/01/25 01:53:45;;;;;;;74.30;36.05;;;4.70;99.90;;;;;;5071110;28;20036;-68
2022/01/25 01:56:11;;;;;;;77.43;36.45;;;4.70;99.90;;;;;;5071151;28;20439;-67
2022/01/25 01:58:37;;;;;;;74.20;34.97;;;4.80;99.90;;;;;;5070871;28;20036;-67
2022/01/25 02:01:08;;;;;;;74.45;35.72;;;4.80;99.90;;;;;;5071293;28;20050;-67
2022/01/25 02:03:34;;;;;;;79.88;36.38;;;4.80;99.90;;;;;;5070870;28;20040;-67
2022/01/25 02:06:00;;;;;;;80.32;37.00;;;4.80;99.90;;;;;;5071106;28;20064;-67
2022/01/25 02:08:26;;;;;;;76.05;35.95;;;4.80;99.90;;;;;;5070889;28;20404;-67
2022/01/25 02:10:51;;;;;;;74.20;36.33;;;4.80;99.90;;;;;;5070859;28;20044;-67
2022/01/25 02:13:17;;;;;;;75.45;36.95;;;4.80;99.90;;;;;;5052298;28;20070;-67
2022/01/25 02:15:47;;;;;;;73.75;35.90;;;4.90;99.90;;;;;;5070893;28;20047;-67
2022/01/25 02:23:44;;;;;;;73.38;34.70;;;4.80;99.90;;;;;;5070205;28;20492;-67
2022/01/25 02:26:12;;;;;;;75.78;35.08;;;4.80;99.90;;;;;;5052826;28;20040;-67
2022/01/25 02:28:40;;;;;;;75.30;34.08;;;4.80;99.90;;;;;;5070719;28;20032;-67
2022/01/25 02:31:08;;;;;;;75.07;35.13;;;4.90;99.90;;;;;;5070419;28;20047;-67
2022/01/25 02:33:34;;;;;;;73.30;33.78;;;4.90;99.90;;;;;;5070383;28;20110;-67
2022/01/25 02:36:06;;;;;;;79.10;34.55;;;4.90;99.90;;;;;;5070496;28;20040;-67
2022/01/25 02:38:33;;;;;;;75.85;35.25;;;4.90;99.90;;;;;;5070906;28;20072;-67
2022/01/25 02:41:00;;;;;;;78.93;36.20;;;4.80;99.90;;;;;;5070738;28;20051;-67
2022/01/25 02:43:27;;;;;;;76.22;36.80;;;4.80;99.90;;;;;;5070162;28;20530;-67
2022/01/25 02:48:56;;;;;;;77.25;35.78;;;4.80;99.90;;;;;;5070412;28;20076;-67
2022/01/25 02:51:37;;;;;;;78.00;35.83;;;4.80;99.90;;;;;;5070615;28;20063;-67
2022/01/25 02:54:04;;;;;;;81.60;35.80;;;4.80;99.90;;;;;;5052194;28;20045;-67
2022/01/25 02:56:31;;;;;;;79.03;35.25;;;4.90;99.90;;;;;;5055839;28;20040;-67
2022/01/25 02:58:57;;;;;;;73.60;34.88;;;4.80;99.90;;;;;;5077056;28;20036;-67
2022/01/25 03:01:23;;;;;;;78.03;37.30;;;4.80;99.90;;;;;;5077016;28;20055;-67
2022/01/25 03:03:50;;;;;;;80.97;36.60;;;4.80;99.90;;;;;;5077002;28;20055;-67
2022/01/25 03:06:20;;;;;;;73.82;34.65;;;4.80;99.90;;;;;;5077214;28;20052;-67
2022/01/25 03:08:48;;;;;;;79.15;36.97;;;4.80;99.90;;;;;;5076958;28;20064;-67
2022/01/25 03:11:14;;;;;;;80.82;37.10;;;4.80;99.90;;;;;;5077047;28;20041;-67
2022/01/25 03:14:04;;;;;;;79.60;36.22;;;4.80;99.90;;;;;;5076462;28;20033;-67
2022/01/25 03:16:41;;;;;;;78.10;36.30;;;4.80;99.90;;;;;;5058371;28;20045;-67
2022/01/25 03:22:01;;;;;;;74.80;35.63;;;4.80;99.90;;;;;;5076647;28;20075;-67
2022/01/25 03:24:27;;;;;;;74.93;36.05;;;4.80;99.90;;;;;;5076925;28;20128;-67
2022/01/25 03:26:53;;;;;;;75.80;35.28;;;4.80;99.90;;;;;;5076925;28;20047;-67
2022/01/25 03:29:18;;;;;;;74.50;35.08;;;4.80;99.90;;;;;;5076661;28;20131;-67
2022/01/25 03:31:44;;;;;;;74.03;34.20;;;4.80;99.90;;;;;;5076600;28;20119;-68
2022/01/25 03:34:10;;;;;;;79.55;36.85;;;4.80;99.90;;;;;;5076476;28;20629;-67
2022/01/25 03:36:35;;;;;;;80.38;36.88;;;4.80;99.90;;;;;;5076709;28;20063;-67
2022/01/25 03:39:04;;;;;;;71.28;34.88;;;4.80;99.90;;;;;;5076788;28;20036;-67
2022/01/25 03:41:32;;;;;;;76.32;34.60;;;4.80;99.90;;;;;;5076691;28;20076;-67
2022/01/25 03:43:57;;;;;;;81.93;36.20;;;4.80;99.90;;;;;;5076323;28;20480;-67
2022/01/25 03:46:42;;;;;;;77.53;35.92;;;4.80;99.90;;;;;;5076592;28;20083;-67
2022/01/25 03:51:52;;;;;;;75.82;34.22;;;4.70;99.90;;;;;;5076197;28;20048;-67
2022/01/25 03:54:19;;;;;;;75.53;34.85;;;4.80;99.90;;;;;;5076469;28;20040;-67
2022/01/25 03:56:45;;;;;;;79.72;34.92;;;4.80;99.90;;;;;;5076421;28;20068;-67
2022/01/25 03:59:11;;;;;;;80.18;34.33;;;4.90;99.90;;;;;;5076346;28;20106;-67
2022/01/25 04:01:37;;;;;;;77.80;35.08;;;4.80;99.90;;;;;;5076073;28;20041;-67
2022/01/25 04:04:08;;;;;;;77.75;35.03;;;4.80;99.90;;;;;;5076408;28;20102;-67
2022/01/25 04:06:36;;;;;;;76.72;34.35;;;4.80;99.90;;;;;;5076638;28;20044;-67
2022/01/25 04:09:07;;;;;;;74.03;36.00;;;4.90;99.90;;;;;;5072215;28;20044;-67
2022/01/25 04:11:33;;;;;;;79.30;34.08;;;4.80;99.90;;;;;;5073212;28;20369;-67
2022/01/25 04:13:59;;;;;;;74.00;33.95;;;4.80;99.90;;;;;;5072884;28;20081;-67
2022/01/25 04:16:33;;;;;;;70.95;32.83;;;4.80;99.90;;;;;;5072801;28;20036;-67
2022/01/25 04:26:51;;;;;;;73.60;32.58;;;4.80;99.90;;;;;;5073138;28;20052;-67
2022/01/25 04:29:16;;;;;;;71.32;31.98;;;4.80;99.90;;;;;;5054647;28;20048;-68
2022/01/25 04:31:42;;;;;;;74.15;33.90;;;4.70;99.90;;;;;;5072245;28;20376;-67
2022/01/25 04:34:25;;;;;;;69.25;32.15;;;4.80;99.90;;;;;;5072418;28;20033;-67
2022/01/25 04:50:51;;;;;;;71.70;30.45;;;4.90;99.90;;;;;;5072478;28;20063;-67
2022/01/25 04:53:21;;;;;;;78.35;34.60;;;4.80;99.90;;;;;;5054073;28;20055;-68
2022/01/25 04:55:55;;;;;;;73.93;32.55;;;4.80;99.90;;;;;;5072595;28;20073;-68
2022/01/25 04:58:35;;;;;;;75.32;34.28;;;4.60;99.90;;;;;;5072451;28;20041;-67
2022/01/25 05:01:01;;;;;;;71.35;31.48;;;4.60;99.90;;;;;;5072414;28;20041;-67
2022/01/25 05:03:37;;;;;;;76.03;33.28;;;4.60;99.90;;;;;;5071870;28;20131;-67
2022/01/25 05:06:10;;;;;;;76.43;33.42;;;4.60;99.90;;;;;;5072421;28;20394;-67
2022/01/25 05:08:41;;;;;;;78.97;34.17;;;4.70;99.90;;;;;;5054177;28;20058;-67
2022/01/25 05:11:31;;;;;;;72.18;31.17;;;4.60;99.90;;;;;;5038070;28;20101;-67
2022/01/25 05:14:10;;;;;;;78.32;33.30;;;4.60;99.90;;;;;;5053327;28;20075;-67
2022/01/25 05:16:47;;;;;;;70.28;31.92;;;4.50;99.90;;;;;;5072064;28;20093;-66
2022/01/25 05:24:26;;;;;;;80.88;32.83;;;4.60;99.90;;;;;;5071621;28;20106;-67
2022/01/25 05:26:54;;;;;;;68.50;32.28;;;4.70;99.90;;;;;;5072080;28;20051;-67
2022/01/25 05:29:20;;;;;;;78.60;34.88;;;4.70;99.90;;;;;;5053859;28;20048;-67
2022/01/25 05:31:46;;;;;;;72.80;33.30;;;4.70;99.90;;;;;;5071587;28;20036;-67
2022/01/25 05:34:11;;;;;;;76.28;32.78;;;4.60;99.90;;;;;;5071754;28;20505;-67
2022/01/25 05:36:39;;;;;;;72.57;33.13;;;4.60;99.90;;;;;;5071540;28;20044;-67
2022/01/25 05:39:11;;;;;;;74.70;33.10;;;4.70;99.90;;;;;;5071562;28;20151;-67
2022/01/25 05:41:39;;;;;;;78.50;34.28;;;4.70;99.90;;;;;;5071660;28;20111;-66
2022/01/25 05:46:45;;;;;;;81.95;35.55;;;4.70;99.90;;;;;;5071494;28;20419;-66
2022/01/25 05:49:11;;;;;;;72.15;32.92;;;4.70;99.90;;;;;;5071535;28;20036;-67
2022/01/25 05:51:36;;;;;;;72.28;34.15;;;4.70;99.90;;;;;;5071139;28;20054;-66
2022/01/25 05:54:02;;;;;;;75.78;32.72;;;4.70;99.90;;;;;;5071031;28;20049;-66
2022/01/25 05:56:27;;;;;;;69.10;32.20;;;4.70;99.90;;;;;;5071275;28;20113;-66
2022/01/25 05:58:53;;;;;;;87.18;34.85;;;4.70;99.90;;;;;;5071232;28;20074;-67
2022/01/25 06:01:19;;;;;;;84.28;35.00;;;4.70;99.90;;;;;;5070985;28;20460;-67
2022/01/25 06:03:45;;;;;;;76.38;34.72;;;4.70;99.90;;;;;;5070784;28;20456;-67
2022/01/25 06:06:12;;;;;;;79.15;33.92;;;4.70;99.90;;;;;;5053016;28;20125;-67
2022/01/25 06:08:37;;;;;;;76.57;34.72;;;4.70;99.90;;;;;;5053030;28;20151;-67
2022/01/25 06:11:03;;;;;;;68.45;32.08;;;4.70;99.90;;;;;;5070999;28;20493;-67
2022/01/25 06:13:29;;;;;;;81.00;35.60;;;4.80;99.90;;;;;;5070592;28;20084;-67
2022/01/25 06:15:55;;;;;;;76.50;33.13;;;4.80;99.90;;;;;;5070786;28;20119;-67
2022/01/25 06:18:20;;;;;;;74.18;31.38;;;4.80;99.90;;;;;;5071193;28;20116;-67
2022/01/25 06:20:46;;;;;;;72.38;33.13;;;4.80;99.90;;;;;;5071209;28;20119;-67
2022/01/25 06:23:11;;;;;;;78.50;34.13;;;4.70;99.90;;;;;;5070788;28;20138;-67
2022/01/25 06:25:37;;;;;;;79.65;34.28;;;4.80;99.90;;;;;;5070912;28;20036;-67
2022/01/25 06:28:03;;;;;;;73.47;34.65;;;4.80;99.90;;;;;;5070917;28;20110;-67
2022/01/25 06:30:28;;;;;;;70.07;32.53;;;4.80;99.90;;;;;;5052304;28;20040;-67
2022/01/25 06:32:54;;;;;;;77.28;33.55;;;4.70;99.90;;;;;;5070360;28;20421;-67
2022/01/25 06:35:19;;;;;;;78.25;34.10;;;4.70;99.90;;;;;;5071101;28;20107;-67
2022/01/25 06:37:46;;;;;;;72.38;32.92;;;4.70;99.90;;;;;;5070977;28;20553;-67
2022/01/25 06:40:12;;;;;;;79.15;33.20;;;4.80;99.90;;;;;;5070768;28;20140;-67
2022/01/25 06:42:38;;;;;;;79.50;33.90;;;4.80;99.90;;;;;;5070467;28;20080;-67
2022/01/25 06:45:11;;;;;;;82.78;36.22;;;4.80;99.90;;;;;;5070413;28;20036;-67
2022/01/25 06:47:36;;;;;;;82.10;34.67;;;4.80;99.90;;;;;;5070386;28;20054;-66
2022/01/25 06:50:03;;;;;;;73.10;32.83;;;4.70;99.90;;;;;;5070701;28;20465;-67
2022/01/25 06:52:29;;;;;;;74.90;32.92;;;4.80;99.90;;;;;;5070451;28;20120;-68
2022/01/25 06:54:54;;;;;;;73.63;32.90;;;4.70;99.90;;;;;;5070476;28;20107;-68
2022/01/25 06:57:20;;;;;;;76.25;33.63;;;4.70;99.90;;;;;;5070543;28;20423;-67
2022/01/25 06:59:45;;;;;;;77.50;33.88;;;4.70;99.90;;;;;;5070574;28;20036;-67
2022/01/25 07:02:12;;;;;;;88.75;37.20;;;4.70;99.90;;;;;;5070384;28;20120;-67
2022/01/25 07:04:38;;;;;;;74.78;32.90;;;4.60;99.90;;;;;;5052606;28;20044;-67
2022/01/25 07:07:04;;;;;;;79.50;33.20;;;4.60;99.90;;;;;;5070647;28;20045;-67
2022/01/25 07:09:29;;;;;;;78.55;34.03;;;4.60;99.90;;;;;;5070473;28;20086;-67
2022/01/25 07:11:55;;;;;;;90.72;38.47;;;4.70;99.90;;;;;;5070345;28;20488;-68
2022/01/25 07:14:21;;;;;;;93.70;38.03;;;4.70;99.90;;;;;;5070011;28;20511;-67
2022/01/25 07:16:46;;;;;;;84.07;35.63;;;4.70;99.90;;;;;;5070147;28;20110;-67
2022/01/25 07:19:12;;;;;;;75.20;32.97;;;4.70;99.90;;;;;;5070228;28;20127;-67
2022/01/25 07:21:38;;;;;;;99.20;41.63;;;4.80;99.90;;;;;;5070143;28;20067;-67
2022/01/25 07:24:04;;;;;;;133.82;56.42;;;4.70;99.90;;;;;;5069868;28;20068;-67
2022/01/25 07:26:30;;;;;;;94.30;40.00;;;4.80;99.90;;;;;;5069962;28;20049;-67
2022/01/25 07:28:55;;;;;;;84.32;36.92;;;4.80;99.90;;;;;;5070269;28;20041;-67
2022/01/25 07:31:21;;;;;;;83.10;35.28;;;4.80;99.90;;;;;;5070085;28;20040;-67
2022/01/25 07:33:47;;;;;;;77.00;33.33;;;4.70;99.90;;;;;;5069773;28;20040;-67
2022/01/25 07:36:12;;;;;;;76.72;33.17;;;4.70;99.90;;;;;;5070085;28;20380;-67
2022/01/25 07:38:38;;;;;;;75.32;32.35;;;4.70;99.90;;;;;;5069911;28;20041;-67
2022/01/25 07:41:04;;;;;;;81.03;34.38;;;4.80;99.90;;;;;;5069900;28;20041;-67
2022/01/25 07:43:29;;;;;;;76.38;33.67;;;4.80;99.90;;;;;;5072803;28;20412;-67
2022/01/25 07:45:57;;;;;;;75.00;33.85;;;4.80;99.90;;;;;;5055847;28;20095;-67
2022/01/25 07:48:22;;;;;;;72.68;31.90;;;4.80;99.90;;;;;;5055398;28;20106;-67
2022/01/25 07:50:48;;;;;;;78.18;33.00;;;4.80;99.90;;;;;;5073262;28;20036;-67
2022/01/25 07:53:14;;;;;;;84.32;34.22;;;4.80;99.90;;;;;;5072053;28;20044;-67
2022/01/25 07:55:40;;;;;;;75.07;32.22;;;4.70;99.90;;;;;;5071114;28;20033;-67
2022/01/25 07:58:06;;;;;;;73.95;33.17;;;4.70;99.90;;;;;;5070390;28;20047;-67
2022/01/25 08:00:32;;;;;;;70.80;31.20;;;4.60;99.90;;;;;;5069858;28;20075;-68
2022/01/25 08:02:58;;;;;;;77.68;32.53;;;4.70;99.90;;;;;;5070739;28;20036;-67
2022/01/25 08:05:26;;;;;;;83.10;35.50;;;4.80;99.90;;;;;;5072697;28;20106;-67
2022/01/25 08:07:53;;;;;;;79.80;32.88;;;4.80;99.90;;;;;;5073343;28;20501;-67
2022/01/25 08:10:19;;;;;;;79.05;32.55;;;4.70;99.90;;;;;;5072667;28;20489;-67
2022/01/25 08:12:45;;;;;;;85.57;34.38;;;4.70;99.90;;;;;;5072184;28;20458;-68
2022/01/25 08:15:12;;;;;;;81.05;35.88;;;4.80;99.90;;;;;;5054774;28;20072;-67
2022/01/25 08:17:37;;;;;;;83.18;34.20;;;4.80;99.90;;;;;;5072692;28;20047;-67
2022/01/25 08:20:04;;;;;;;84.15;33.83;;;4.80;99.90;;;;;;5072001;28;20032;-67
2022/01/25 08:22:29;;;;;;;88.07;35.83;;;4.80;99.90;;;;;;5071863;28;20135;-67
2022/01/25 08:24:55;;;;;;;83.03;34.30;;;4.80;99.90;;;;;;5071689;28;20124;-67
2022/01/25 08:27:22;;;;;;;81.45;34.08;;;4.80;99.90;;;;;;5071852;28;20036;-66
2022/01/25 08:29:52;;;;;;;82.90;32.90;;;4.80;99.90;;;;;;5054896;28;20044;-67
2022/01/25 08:32:18;;;;;;;72.43;31.80;;;4.80;99.90;;;;;;5072589;28;20036;-66
2022/01/25 08:34:44;;;;;;;74.93;32.88;;;4.80;99.90;;;;;;5072719;28;20043;-66
2022/01/25 08:37:10;;;;;;;74.18;31.85;;;4.80;99.90;;;;;;5072754;28;20127;-68
2022/01/25 08:39:36;;;;;;;74.65;30.13;;;4.80;99.90;;;;;;5072674;28;20432;-66
2022/01/25 08:42:03;;;;;;;75.22;31.98;;;4.80;99.90;;;;;;5072453;28;20102;-67
2022/01/25 08:44:29;;;;;;;80.22;32.45;;;4.80;99.90;;;;;;5072377;28;20055;-67
2022/01/25 08:46:54;;;;;;;81.03;34.17;;;4.80;99.90;;;;;;5072121;28;20037;-67
2022/01/25 08:49:21;;;;;;;78.72;32.03;;;4.80;99.90;;;;;;5072383;28;20036;-67
2022/01/25 08:51:48;;;;;;;80.85;33.13;;;4.80;99.90;;;;;;5081027;28;20116;-67
2022/01/25 08:54:14;;;;;;;81.07;32.80;;;4.80;99.90;;;;;;5081092;28;20093;-67
2022/01/25 08:56:41;;;;;;;81.68;34.40;;;4.90;99.90;;;;;;5077471;28;20346;-67
2022/01/25 08:59:07;;;;;;;80.97;34.28;;;4.80;99.90;;;;;;5071856;28;20049;-67
2022/01/25 09:01:33;;;;;;;76.03;32.13;;;4.80;99.90;;;;;;5072008;28;20186;-67
2022/01/25 09:04:00;;;;;;;78.10;33.53;;;4.80;99.90;;;;;;5054271;28;20431;-67
2022/01/25 09:06:26;;;;;;;79.20;32.50;;;4.80;99.90;;;;;;5054532;28;20079;-69
2022/01/25 09:09:00;;;;;;;80.10;33.13;;;4.90;99.90;;;;;;5072341;28;20064;-67
2022/01/25 09:11:25;;;;;;;80.25;35.20;;;4.90;99.90;;;;;;5072090;28;20074;-66
2022/01/25 09:13:51;;;;;;;77.30;32.65;;;5.10;99.90;;;;;;5071203;28;20041;-65
2022/01/25 09:16:16;;;;;;;72.88;33.22;;;4.90;99.90;;;;;;5070474;28;20123;-66
2022/01/25 09:18:43;;;;;;;76.65;32.03;;;4.90;99.90;;;;;;5072105;28;20170;-66
2022/01/25 09:21:09;;;;;;;82.65;33.88;;;4.90;99.90;;;;;;5072223;28;20044;-66
2022/01/25 09:23:35;;;;;;;77.47;31.65;;;4.80;99.90;;;;;;5071779;28;20044;-66
2022/01/25 09:26:02;;;;;;;70.43;30.52;;;4.80;99.90;;;;;;5071851;28;20048;-65
2022/01/25 09:28:28;;;;;;;76.38;33.05;;;4.90;99.90;;;;;;5071755;28;20041;-65
2022/01/25 09:30:54;;;;;;;70.63;29.45;;;5.00;99.90;;;;;;5070056;28;20166;-65
2022/01/25 09:33:19;;;;;;;77.00;32.53;;;5.00;99.90;;;;;;5052846;28;20052;-65
2022/01/25 09:35:45;;;;;;;74.22;32.10;;;5.10;99.90;;;;;;5071379;28;20044;-65
2022/01/25 09:38:11;;;;;;;76.85;31.98;;;5.10;99.90;;;;;;5082946;28;20036;-65
2022/01/25 09:40:36;;;;;;;79.15;33.25;;;5.20;99.90;;;;;;5076287;28;20043;-65
2022/01/25 09:43:03;;;;;;;75.97;32.20;;;5.20;99.90;;;;;;5051920;28;20082;-65
2022/01/25 09:45:28;;;;;;;73.60;32.13;;;5.20;99.90;;;;;;5076782;28;20127;-65
2022/01/25 09:47:54;;;;;;;78.60;32.58;;;5.20;99.90;;;;;;5091798;28;20067;-65
2022/01/25 09:50:21;;;;;;;72.18;30.35;;;5.20;99.90;;;;;;5072964;28;20475;-65
2022/01/25 09:52:48;;;;;;;79.53;32.63;;;5.30;99.90;;;;;;5091006;28;20040;-65
2022/01/25 09:55:21;;;;;;;75.88;32.22;;;5.20;99.90;;;;;;5091619;28;20032;-65
2022/01/25 09:57:47;;;;;;;79.95;32.00;;;5.20;99.90;;;;;;5072969;28;20053;-65
2022/01/25 10:00:16;;;;;;;76.90;32.05;;;5.20;99.90;;;;;;5091529;28;20044;-65
2022/01/25 10:03:07;;;;;;;68.13;29.63;;;5.20;99.90;;;;;;5091078;28;20040;-65
2022/01/25 10:05:38;;;;;;;70.93;30.13;;;5.20;99.90;;;;;;5090411;28;20508;-65
2022/01/25 10:08:21;;;;;;;77.47;30.27;;;5.20;99.90;;;;;;5073087;28;20044;-65
2022/01/25 10:10:50;;;;;;;67.10;29.33;;;5.20;99.90;;;;;;5090418;28;20047;-68
2022/01/25 10:13:23;;;;;;;74.30;31.20;;;5.30;99.90;;;;;;5072227;28;20036;-69
2022/01/25 10:16:04;;;;;;;79.97;33.75;;;5.40;99.90;;;;;;5072877;28;20457;-69
2022/01/25 10:18:52;;;;;;;77.40;31.90;;;5.30;99.90;;;;;;5091139;28;20051;-69
2022/01/25 10:21:22;;;;;;;74.60;31.38;;;5.20;99.90;;;;;;5091152;28;20054;-69
2022/01/25 10:24:11;;;;;;;73.25;33.10;;;5.30;99.90;;;;;;5090885;28;20424;-69
2022/01/25 10:26:55;;;;;;;76.70;32.00;;;5.30;99.90;;;;;;5090885;28;20066;-69
2022/01/25 10:29:34;;;;;;;79.43;35.50;;;5.30;99.90;;;;;;5090783;28;20048;-69
2022/01/25 10:32:04;;;;;;;79.50;31.48;;;5.30;99.90;;;;;;5090591;28;20062;-69
2022/01/25 10:34:34;;;;;;;81.50;32.97;;;5.30;99.90;;;;;;5090950;28;20047;-69
2022/01/25 10:37:07;;;;;;;79.50;31.95;;;5.30;99.90;;;;;;5090603;28;20109;-69
2022/01/25 10:39:35;;;;;;;76.60;32.33;;;5.30;99.90;;;;;;5090928;28;20036;-69
2022/01/25 10:42:02;;;;;;;74.63;31.00;;;5.30;99.90;;;;;;5090515;28;20079;-69
2022/01/25 10:44:54;;;;;;;78.53;32.40;;;5.30;99.90;;;;;;5090428;28;20534;-69
2022/01/25 10:47:45;;;;;;;75.07;32.00;;;5.30;99.90;;;;;;5072745;28;20538;-70
2022/01/25 10:50:22;;;;;;;69.07;28.77;;;5.40;99.90;;;;;;5085712;28;20389;-69
2022/01/25 10:53:05;;;;;;;74.88;31.00;;;5.30;99.90;;;;;;5032140;28;20037;-69
2022/01/25 10:55:42;;;;;;;72.53;31.38;;;5.30;99.90;;;;;;5050314;28;20033;-70
2022/01/25 10:58:08;;;;;;;79.60;37.22;;;5.40;99.90;;;;;;5050079;28;20048;-70
2022/01/25 11:00:37;;;;;;;93.25;41.08;;;5.40;99.90;;;;;;5050134;28;20174;-70
2022/01/25 11:03:04;;;;;;;80.85;33.55;;;5.40;99.90;;;;;;5050096;28;20045;-70
2022/01/25 11:05:37;;;;;;;74.43;31.80;;;5.40;99.90;;;;;;5050157;28;20053;-70
2022/01/25 11:08:13;;;;;;;71.75;32.60;;;5.40;99.90;;;;;;5050199;28;20083;-70
2022/01/25 11:10:46;;;;;;;72.38;30.45;;;5.40;99.90;;;;;;5049499;28;20048;-69
2022/01/25 11:13:33;;;;;;;73.70;31.23;;;5.40;99.90;;;;;;5049867;28;20446;-70
2022/01/25 11:16:05;;;;;;;76.43;31.48;;;5.30;99.90;;;;;;5050114;28;20045;-69
2022/01/25 11:18:30;;;;;;;73.65;31.58;;;5.30;99.90;;;;;;5053642;28;20049;-69
2022/01/25 11:20:59;;;;;;;73.22;30.50;;;5.40;99.90;;;;;;5054208;28;20040;-69
2022/01/25 11:23:25;;;;;;;75.10;30.83;;;5.30;99.90;;;;;;5053739;28;20053;-70
2022/01/25 11:25:53;;;;;;;72.95;32.17;;;5.40;99.90;;;;;;5054413;28;20112;-69
2022/01/25 11:28:19;;;;;;;71.80;30.92;;;5.40;99.90;;;;;;5054002;28;20052;-70
2022/01/25 11:30:47;;;;;;;79.97;32.28;;;5.40;99.90;;;;;;5053551;28;20274;-70
2022/01/25 11:33:14;;;;;;;74.55;32.45;;;5.40;99.90;;;;;;5053735;28;20037;-69
2022/01/25 11:35:41;;;;;;;76.95;32.15;;;5.30;99.90;;;;;;5053674;28;20068;-70
2022/01/25 11:38:07;;;;;;;78.22;30.67;;;5.40;99.90;;;;;;5054001;28;20048;-70
2022/01/25 11:40:44;;;;;;;73.10;30.90;;;5.30;99.90;;;;;;5035854;28;20610;-70
2022/01/25 11:43:15;;;;;;;75.45;31.02;;;5.30;99.90;;;;;;5053381;28;20517;-66
2022/01/25 11:45:49;;;;;;;78.07;33.47;;;5.40;99.90;;;;;;5053731;28;20040;-70
2022/01/25 11:48:23;;;;;;;75.88;32.20;;;5.40;99.90;;;;;;5053727;28;20040;-70
2022/01/25 11:50:48;;;;;;;78.93;31.65;;;5.40;99.90;;;;;;5053116;28;20072;-71
2022/01/25 11:53:18;;;;;;;78.68;31.02;;;5.40;99.90;;;;;;5053136;28;20137;-66
2022/01/25 11:55:47;;;;;;;75.45;30.75;;;5.50;99.90;;;;;;5053677;28;20045;-67
2022/01/25 11:58:30;;;;;;;77.28;32.85;;;5.40;99.90;;;;;;5053440;28;20455;-65
2022/01/25 12:01:01;;;;;;;74.97;31.30;;;5.40;99.90;;;;;;5053632;28;20107;-66
2022/01/25 12:03:40;;;;;;;74.53;31.73;;;5.50;99.90;;;;;;5053242;28;20041;-65
2022/01/25 12:06:24;;;;;;;72.60;29.73;;;5.40;99.90;;;;;;5053539;28;20056;-66
2022/01/25 12:11:40;;;;;;;74.72;29.90;;;5.40;99.90;;;;;;5072755;28;20048;-67
2022/01/25 12:14:22;;;;;;;74.57;30.23;;;5.40;99.90;;;;;;5072701;28;20408;-66
2022/01/25 12:16:48;;;;;;;77.65;30.98;;;5.40;99.90;;;;;;5073275;28;20037;-65
2022/01/25 12:19:20;;;;;;;74.90;32.03;;;5.30;99.90;;;;;;5072753;28;20058;-66
2022/01/25 12:21:50;;;;;;;79.15;29.92;;;5.40;99.90;;;;;;5073012;28;20397;-66
2022/01/25 12:24:28;;;;;;;76.90;31.45;;;5.40;99.90;;;;;;5072951;28;20040;-66
2022/01/25 12:29:55;;;;;;;68.60;28.92;;;5.40;99.90;;;;;;5071455;28;20068;-65
2022/01/25 12:32:26;;;;;;;80.50;31.90;;;5.40;99.90;;;;;;5066298;28;20548;-65
2022/01/25 12:35:10;;;;;;;71.93;30.60;;;5.40;99.90;;;;;;5073100;28;20195;-66
2022/01/25 12:37:46;;;;;;;82.03;30.98;;;5.40;99.90;;;;;;5072779;28;20040;-66
2022/01/25 12:40:26;;;;;;;69.85;30.48;;;5.30;99.90;;;;;;5072557;28;20497;-65
2022/01/25 12:43:01;;;;;;;84.25;32.88;;;5.40;99.90;;;;;;5072377;28;20067;-65
2022/01/25 12:45:36;;;;;;;80.95;31.45;;;5.40;99.90;;;;;;5072711;28;20032;-65
2022/01/25 12:48:06;;;;;;;76.65;30.98;;;5.40;99.90;;;;;;5072637;28;20044;-66
2022/01/25 12:50:36;;;;;;;73.65;31.38;;;5.40;99.90;;;;;;5054214;28;20037;-65
2022/01/25 12:53:02;;;;;;;77.25;31.95;;;5.40;99.90;;;;;;5072034;28;20391;-66
2022/01/25 12:55:33;;;;;;;74.22;30.42;;;5.30;99.90;;;;;;5072475;28;20036;-66
2022/01/25 12:57:58;;;;;;;73.60;30.83;;;5.40;99.90;;;;;;5072433;28;20437;-66
2022/01/25 13:00:31;;;;;;;75.57;31.23;;;5.30;99.90;;;;;;5072448;28;20102;-66
2022/01/25 13:03:29;;;;;;;68.13;29.52;;;5.30;99.90;;;;;;5063015;28;20053;-67
2022/01/25 13:06:06;;;;;;;73.85;31.15;;;5.30;99.90;;;;;;5052215;28;20509;-65
2022/01/25 13:08:35;;;;;;;70.65;28.48;;;5.50;99.90;;;;;;5052321;28;20052;-67
2022/01/25 13:17:20;;;;;;;69.68;29.60;;;5.40;99.90;;;;;;4970863;28;20038;-66
2022/01/25 13:19:50;;;;;;;74.28;29.52;;;5.50;99.90;;;;;;4954446;28;20176;-66
2022/01/25 13:22:30;;;;;;;67.43;27.42;;;5.40;99.90;;;;;;4970699;28;20047;-65
2022/01/25 13:25:12;;;;;;;67.88;28.77;;;5.40;99.90;;;;;;4970708;28;20047;-69
2022/01/25 13:27:50;;;;;;;78.43;30.20;;;5.40;99.90;;;;;;4969981;28;20043;-70
2022/01/25 13:33:04;;;;;;;78.88;29.52;;;5.40;99.90;;;;;;4968242;28;20350;-66
2022/01/25 13:35:34;;;;;;;65.28;28.60;;;5.30;99.90;;;;;;4969362;28;20070;-66
2022/01/25 13:38:06;;;;;;;78.13;29.73;;;5.30;99.90;;;;;;4970890;28;20050;-66
2022/01/25 13:40:44;;;;;;;69.97;29.90;;;5.20;99.90;;;;;;4970675;28;20046;-66
2022/01/25 13:43:32;;;;;;;70.43;28.73;;;5.20;99.90;;;;;;4970621;28;20054;-65
2022/01/25 13:46:06;;;;;;;70.40;27.75;;;5.20;99.90;;;;;;4970799;28;20046;-66
2022/01/25 13:48:33;;;;;;;68.18;28.15;;;5.20;99.90;;;;;;4976557;28;20042;-66
2022/01/25 13:51:07;;;;;;;76.38;30.02;;;5.10;99.90;;;;;;5051408;28;20069;-66
2022/01/25 13:53:35;;;;;;;69.70;28.73;;;5.20;99.90;;;;;;5051331;28;20068;-66
2022/01/25 13:56:02;;;;;;;65.88;28.75;;;5.20;99.90;;;;;;5051755;28;20107;-66
2022/01/25 13:58:36;;;;;;;70.47;29.27;;;5.20;99.90;;;;;;5051298;28;20041;-66
2022/01/25 14:01:09;;;;;;;69.28;28.75;;;5.20;99.90;;;;;;5051425;28;20044;-66
2022/01/25 14:03:41;;;;;;;75.18;30.10;;;5.20;99.90;;;;;;5050738;28;20514;-66
2022/01/25 14:06:30;;;;;;;70.13;29.00;;;5.10;99.90;;;;;;5051882;28;20048;-66
2022/01/25 14:09:20;;;;;;;71.97;28.23;;;5.20;99.90;;;;;;5051341;28;20271;-66
2022/01/25 14:25:13;;;;;;;80.18;32.15;;;5.10;99.90;;;;;;5051318;28;20498;-66
2022/01/25 14:27:52;;;;;;;79.45;33.80;;;5.10;99.90;;;;;;5050989;28;20489;-66
2022/01/25 14:30:18;;;;;;;66.82;27.77;;;5.20;99.90;;;;;;5050969;28;20044;-66
2022/01/25 14:32:55;;;;;;;68.60;26.70;;;5.10;99.90;;;;;;5050675;28;20407;-66
2022/01/25 14:35:20;;;;;;;71.43;30.73;;;5.10;99.90;;;;;;5051059;28;20049;-66
2022/01/25 14:37:49;;;;;;;69.07;28.40;;;5.00;99.90;;;;;;5049382;28;20047;-66
2022/01/25 14:40:17;;;;;;;76.43;30.27;;;5.10;99.90;;;;;;5050833;28;20442;-66
2022/01/25 14:42:44;;;;;;;80.40;31.65;;;5.10;99.90;;;;;;5050630;28;20040;-66
2022/01/25 14:45:20;;;;;;;74.70;29.52;;;5.10;99.90;;;;;;5050631;28;20080;-66
2022/01/25 14:47:50;;;;;;;72.65;28.75;;;5.10;99.90;;;;;;5051086;28;20351;-66
2022/01/25 14:50:22;;;;;;;72.13;29.52;;;5.10;99.90;;;;;;5050971;28;20037;-66
2022/01/25 14:53:09;;;;;;;82.45;29.08;;;5.10;99.90;;;;;;5049912;28;20102;-66
2022/01/25 14:55:37;;;;;;;68.47;27.95;;;5.10;99.90;;;;;;5050607;28;20114;-66